Time;durP1;ratioP1;P1;durP2;ratioP2;P2;SDS_P1;SDS_P2;PMS_P1;PMS_P2;Temp;Humidity;BMP_temperature;BMP_pressure;BME280_temperature;BME280_humidity;BME280_pressure;Samples;Min_cycle;Max_cycle;Signal;HPM_P1;HPM_P2
2021/06/11 00:00:51;;;;;;;18.03;14.30;;;14.70;99.90;;;;;;4869959;29;20225;-96
2021/06/11 00:03:17;;;;;;;15.77;14.20;;;14.70;99.90;;;;;;4875355;29;20194;-96
2021/06/11 00:05:43;;;;;;;16.70;15.10;;;14.70;99.90;;;;;;4876959;29;20448;-95
2021/06/11 00:08:09;;;;;;;15.10;13.60;;;14.70;99.90;;;;;;4869098;29;20473;-96
2021/06/11 00:10:37;;;;;;;16.50;14.80;;;14.60;99.90;;;;;;4882584;29;20185;-96
2021/06/11 00:13:04;;;;;;;18.40;15.90;;;14.60;99.90;;;;;;4876604;29;20462;-96
2021/06/11 00:15:30;;;;;;;17.43;15.50;;;14.50;99.90;;;;;;4877705;29;21121;-96
2021/06/11 00:17:56;;;;;;;17.13;15.43;;;14.50;99.90;;;;;;4875497;29;20492;-96
2021/06/11 00:20:22;;;;;;;17.57;15.87;;;14.40;99.90;;;;;;4875648;29;20449;-96
2021/06/11 00:22:48;;;;;;;17.57;15.70;;;14.40;99.90;;;;;;4877222;29;20189;-96
2021/06/11 00:25:24;;;;;;;17.73;15.90;;;14.40;99.90;;;;;;4868719;29;20454;-96
2021/06/11 00:27:51;;;;;;;17.17;15.37;;;14.40;99.90;;;;;;4872189;29;20451;-96
2021/06/11 00:30:19;;;;;;;18.27;16.37;;;14.40;99.90;;;;;;4862765;29;20549;-96
2021/06/11 00:32:45;;;;;;;16.23;14.50;;;14.30;99.90;;;;;;4875008;29;20450;-95
2021/06/11 00:35:12;;;;;;;17.27;15.57;;;14.30;99.90;;;;;;4876561;29;20477;-94
2021/06/11 00:37:38;;;;;;;17.40;15.63;;;14.30;99.90;;;;;;4881604;29;20475;-96
2021/06/11 00:40:08;;;;;;;17.60;15.87;;;14.20;99.90;;;;;;4884218;29;20449;-96
2021/06/11 00:42:35;;;;;;;17.57;15.87;;;14.20;99.90;;;;;;4879201;29;20466;-96
2021/06/11 00:45:01;;;;;;;18.90;17.03;;;14.20;99.90;;;;;;4891398;29;20457;-96
2021/06/11 00:47:27;;;;;;;20.10;17.00;;;14.20;99.90;;;;;;4877421;29;20445;-96
2021/06/11 00:49:52;;;;;;;19.33;15.73;;;14.10;99.90;;;;;;4884385;29;20449;-96
2021/06/11 00:52:18;;;;;;;16.73;15.13;;;14.10;99.90;;;;;;4876596;29;20976;-96
2021/06/11 00:54:45;;;;;;;17.80;16.00;;;14.10;99.90;;;;;;4879450;29;20193;-96
2021/06/11 00:57:12;;;;;;;17.50;15.70;;;14.20;99.90;;;;;;4878228;29;20297;-95
2021/06/11 00:59:43;;;;;;;17.87;16.10;;;14.20;99.90;;;;;;4876219;29;20465;-96
2021/06/11 01:02:10;;;;;;;17.97;16.07;;;14.20;99.90;;;;;;4875748;29;20449;-95
2021/06/11 01:04:36;;;;;;;17.63;15.83;;;14.20;99.90;;;;;;4876370;29;20995;-96
2021/06/11 01:07:04;;;;;;;18.97;16.90;;;14.10;99.90;;;;;;4875353;29;20454;-96
2021/06/11 01:09:32;;;;;;;17.53;15.63;;;14.10;99.90;;;;;;4873625;29;20252;-96
2021/06/11 01:12:01;;;;;;;17.20;15.50;;;14.10;99.90;;;;;;4863175;29;20453;-96
2021/06/11 01:14:29;;;;;;;17.13;15.30;;;14.10;99.90;;;;;;4890197;29;21185;-95
2021/06/11 01:16:55;;;;;;;16.63;14.83;;;14.10;99.90;;;;;;4876691;29;20485;-95
2021/06/11 01:19:29;;;;;;;19.10;16.23;;;14.10;99.90;;;;;;4869876;29;20466;-96
2021/06/11 01:22:08;;;;;;;17.50;15.73;;;14.00;99.90;;;;;;4871286;29;20229;-96
2021/06/11 01:24:45;;;;;;;17.20;15.53;;;14.00;99.90;;;;;;4870471;29;20986;-94
2021/06/11 01:27:12;;;;;;;16.70;15.00;;;14.00;99.90;;;;;;4872956;29;20478;-96
2021/06/11 01:29:42;;;;;;;16.50;14.70;;;14.00;99.90;;;;;;4868427;29;20462;-96
2021/06/11 01:32:08;;;;;;;17.37;15.57;;;13.90;99.90;;;;;;4872952;29;20488;-96
2021/06/11 01:34:37;;;;;;;18.10;15.70;;;13.90;99.90;;;;;;4864787;29;20518;-95
2021/06/11 01:37:24;;;;;;;17.17;15.40;;;13.90;99.90;;;;;;4866472;29;20557;-96
2021/06/11 01:39:59;;;;;;;15.70;14.00;;;13.90;99.90;;;;;;4871031;29;20552;-96
2021/06/11 01:42:35;;;;;;;15.23;13.80;;;13.90;99.90;;;;;;4871767;29;20458;-96
2021/06/11 01:45:08;;;;;;;15.30;13.87;;;13.90;99.90;;;;;;4870339;29;20559;-96
2021/06/11 01:47:47;;;;;;;15.50;14.00;;;13.90;99.90;;;;;;4873761;29;20453;-96
2021/06/11 01:50:18;;;;;;;15.57;14.07;;;13.90;99.90;;;;;;4882844;29;20982;-96
2021/06/11 01:52:45;;;;;;;14.50;13.10;;;13.90;99.90;;;;;;4875416;29;20454;-96
2021/06/11 01:55:11;;;;;;;14.83;13.43;;;13.90;99.90;;;;;;4879214;29;20454;-95
2021/06/11 01:57:39;;;;;;;14.67;13.37;;;13.90;99.90;;;;;;4882677;29;20485;-96
2021/06/11 02:00:06;;;;;;;15.00;13.50;;;13.80;99.90;;;;;;4879463;29;20555;-95
2021/06/11 02:02:34;;;;;;;14.70;13.30;;;13.70;99.90;;;;;;4871712;29;20463;-96
2021/06/11 02:05:03;;;;;;;16.27;14.37;;;13.70;99.90;;;;;;4877384;29;20548;-96
2021/06/11 02:07:33;;;;;;;14.77;13.27;;;13.80;99.90;;;;;;4881585;29;20514;-96
2021/06/11 02:10:00;;;;;;;15.20;13.67;;;13.70;99.90;;;;;;4868560;29;21855;-96
2021/06/11 02:12:26;;;;;;;14.80;13.40;;;13.80;99.90;;;;;;4871497;29;20510;-96
2021/06/11 02:14:57;;;;;;;15.73;14.23;;;13.60;99.90;;;;;;4880238;29;21728;-96
2021/06/11 02:17:30;;;;;;;16.03;14.40;;;13.60;99.90;;;;;;4877929;29;20521;-95
2021/06/11 02:19:57;;;;;;;14.80;13.30;;;13.50;99.90;;;;;;4871591;29;20510;-96
2021/06/11 02:22:23;;;;;;;16.83;13.80;;;13.50;99.90;;;;;;4880633;29;20487;-96
2021/06/11 02:24:49;;;;;;;14.63;13.20;;;13.40;99.90;;;;;;4873597;29;21205;-96
2021/06/11 02:27:16;;;;;;;25.40;11.90;;;13.50;99.90;;;;;;4869518;29;20494;-96
2021/06/11 02:29:41;;;;;;;15.03;12.63;;;13.40;99.90;;;;;;4881435;29;20559;-96
2021/06/11 02:32:08;;;;;;;21.30;13.50;;;13.40;99.90;;;;;;4875022;29;20549;-96
2021/06/11 02:34:34;;;;;;;38.57;13.10;;;13.30;99.90;;;;;;4885719;29;20194;-95
2021/06/11 02:37:00;;;;;;;21.10;13.17;;;13.20;99.90;;;;;;4876471;29;20473;-96
2021/06/11 02:39:26;;;;;;;17.30;13.00;;;13.20;99.90;;;;;;4866795;29;20186;-96
2021/06/11 02:41:56;;;;;;;15.33;13.83;;;13.10;99.90;;;;;;4866370;29;20468;-96
2021/06/11 02:44:24;;;;;;;14.00;12.33;;;13.20;99.90;;;;;;4885344;29;20522;-95
2021/06/11 02:46:58;;;;;;;30.87;14.60;;;13.20;99.90;;;;;;4873374;29;20544;-96
2021/06/11 02:49:34;;;;;;;18.10;12.57;;;13.20;99.90;;;;;;4875088;29;20488;-95
2021/06/11 02:52:04;;;;;;;21.10;14.53;;;13.20;99.90;;;;;;4891288;29;20461;-96
2021/06/11 02:54:35;;;;;;;27.97;12.87;;;13.20;99.90;;;;;;4890536;29;20466;-96
2021/06/11 02:57:12;;;;;;;59.50;13.43;;;13.20;99.90;;;;;;4883508;29;20489;-96
2021/06/11 02:59:48;;;;;;;75.73;14.70;;;13.20;99.90;;;;;;4887948;29;20859;-96
2021/06/11 03:02:20;;;;;;;32.93;13.70;;;13.20;99.90;;;;;;4886544;29;20457;-96
2021/06/11 03:04:47;;;;;;;46.27;14.60;;;13.20;99.90;;;;;;4894940;29;20474;-96
2021/06/11 03:07:22;;;;;;;120.13;18.20;;;13.30;99.90;;;;;;4892520;29;20473;-96
2021/06/11 03:09:49;;;;;;;105.87;17.70;;;13.20;99.90;;;;;;4899026;29;20469;-96
2021/06/11 03:12:16;;;;;;;63.60;16.70;;;13.20;99.90;;;;;;4883089;29;20454;-96
2021/06/11 03:14:44;;;;;;;47.17;16.03;;;13.20;99.90;;;;;;4889734;29;20454;-96
2021/06/11 03:17:11;;;;;;;47.07;16.37;;;13.20;99.90;;;;;;4889162;29;20513;-96
2021/06/11 03:19:39;;;;;;;33.77;15.83;;;13.30;99.90;;;;;;4890747;29;20470;-96
2021/06/11 03:22:11;;;;;;;112.93;19.60;;;13.30;99.90;;;;;;4883163;29;20457;-96
2021/06/11 03:24:55;;;;;;;31.17;15.47;;;13.30;99.90;;;;;;4875569;29;20548;-95
2021/06/11 03:27:26;;;;;;;120.90;21.40;;;13.40;99.90;;;;;;4884606;29;20454;-96
2021/06/11 03:30:07;;;;;;;28.97;15.57;;;13.40;99.90;;;;;;4886321;29;20450;-96
2021/06/11 03:32:40;;;;;;;40.37;15.20;;;13.40;99.90;;;;;;4893130;29;20946;-96
2021/06/11 03:35:12;;;;;;;54.83;16.27;;;13.40;99.90;;;;;;4895938;29;20445;-96
2021/06/11 03:37:38;;;;;;;32.33;16.43;;;13.40;99.90;;;;;;4908220;29;20483;-95
2021/06/11 03:40:07;;;;;;;66.17;16.03;;;13.40;99.90;;;;;;4883229;29;20505;-96
2021/06/11 03:42:35;;;;;;;36.80;13.67;;;13.40;99.90;;;;;;4894818;29;20477;-96
2021/06/11 03:45:01;;;;;;;63.87;16.47;;;13.30;99.90;;;;;;4894589;29;20440;-96
2021/06/11 03:47:31;;;;;;;104.60;17.83;;;13.40;99.90;;;;;;4878448;29;20468;-96
2021/06/11 03:49:59;;;;;;;82.40;18.33;;;13.40;99.90;;;;;;4893058;29;20189;-96
2021/06/11 03:52:30;;;;;;;48.50;17.37;;;13.40;99.90;;;;;;4888736;29;20487;-96
2021/06/11 03:55:26;;;;;;;75.57;19.00;;;13.40;99.90;;;;;;4889994;29;20446;-95
2021/06/11 03:58:13;;;;;;;143.30;23.00;;;13.40;99.90;;;;;;4901595;29;20489;-96
2021/06/11 04:00:43;;;;;;;182.70;24.97;;;13.40;99.90;;;;;;4889219;29;20454;-96
2021/06/11 04:03:09;;;;;;;253.40;25.67;;;13.40;99.90;;;;;;4887917;29;20541;-95
2021/06/11 04:05:38;;;;;;;78.97;19.40;;;13.30;99.90;;;;;;4886366;29;20499;-96
2021/06/11 04:08:06;;;;;;;92.53;21.37;;;13.40;99.90;;;;;;4894569;29;20458;-96
2021/06/11 04:10:40;;;;;;;66.47;18.50;;;13.40;99.90;;;;;;4894890;29;20463;-96
2021/06/11 04:13:25;;;;;;;43.97;18.83;;;13.50;99.90;;;;;;4893873;29;20447;-96
2021/06/11 04:15:53;;;;;;;227.23;24.23;;;13.50;99.90;;;;;;4897677;29;20464;-96
2021/06/11 04:18:27;;;;;;;109.60;18.30;;;13.60;99.90;;;;;;4894685;29;20509;-96
2021/06/11 04:20:59;;;;;;;68.53;16.17;;;13.50;99.90;;;;;;4901918;29;20453;-96
2021/06/11 04:23:36;;;;;;;17.40;14.47;;;13.50;99.90;;;;;;4893563;29;20456;-96
2021/06/11 04:26:05;;;;;;;30.63;15.60;;;13.60;99.90;;;;;;4889801;29;20514;-96
2021/06/11 04:28:33;;;;;;;85.30;19.17;;;13.60;99.90;;;;;;4889348;29;20438;-96
2021/06/11 04:30:59;;;;;;;92.03;20.00;;;13.60;99.90;;;;;;4893755;29;20430;-96
2021/06/11 04:33:28;;;;;;;155.20;23.60;;;13.50;99.90;;;;;;4894565;29;20572;-96
2021/06/11 04:35:55;;;;;;;54.60;16.23;;;13.50;99.90;;;;;;4887658;29;20473;-96
2021/06/11 04:38:21;;;;;;;82.17;19.73;;;13.50;99.90;;;;;;4889948;29;20478;-96
2021/06/11 04:40:50;;;;;;;94.97;19.87;;;13.60;99.90;;;;;;4899825;29;20464;-96
2021/06/11 04:43:24;;;;;;;17.47;15.67;;;13.60;99.90;;;;;;4893188;29;20460;-96
2021/06/11 04:45:50;;;;;;;18.87;15.40;;;13.70;99.90;;;;;;4895021;29;20457;-96
2021/06/11 04:48:16;;;;;;;40.77;16.13;;;13.90;99.90;;;;;;4906517;29;20441;-96
2021/06/11 04:50:42;;;;;;;78.70;18.60;;;14.00;99.90;;;;;;4906061;29;20469;-96
2021/06/11 04:53:08;;;;;;;107.97;19.33;;;14.10;99.90;;;;;;4888594;29;20197;-96
2021/06/11 04:55:33;;;;;;;59.80;16.97;;;14.00;99.90;;;;;;4883803;29;20669;-96
2021/06/11 04:58:01;;;;;;;18.33;16.53;;;13.90;99.90;;;;;;4893346;29;20225;-96
2021/06/11 05:00:27;;;;;;;32.00;16.90;;;13.90;99.90;;;;;;4889774;29;20213;-96
2021/06/11 05:02:52;;;;;;;23.23;15.63;;;14.00;99.90;;;;;;4895698;29;20461;-96
2021/06/11 05:05:18;;;;;;;17.33;15.33;;;13.90;99.90;;;;;;4900668;29;20193;-96
2021/06/11 05:07:44;;;;;;;16.47;14.87;;;14.00;99.90;;;;;;4902424;29;20189;-93
2021/06/11 05:10:10;;;;;;;17.50;15.57;;;14.10;99.90;;;;;;4900492;29;20470;-96
2021/06/11 05:12:36;;;;;;;16.37;14.63;;;14.10;99.90;;;;;;4897620;29;20249;-96
2021/06/11 05:15:05;;;;;;;17.03;15.33;;;14.10;99.90;;;;;;4893914;29;20446;-96
2021/06/11 05:17:31;;;;;;;15.87;14.27;;;14.10;99.90;;;;;;4893395;29;20222;-96
2021/06/11 05:19:58;;;;;;;16.50;14.80;;;14.20;99.90;;;;;;4897387;29;20549;-95
2021/06/11 05:22:25;;;;;;;15.17;13.67;;;14.20;99.90;;;;;;4892081;29;20260;-96
2021/06/11 05:25:02;;;;;;;14.57;13.20;;;14.40;99.90;;;;;;4885068;29;20449;-96
2021/06/11 05:27:27;;;;;;;13.80;12.40;;;14.40;99.90;;;;;;4892686;29;20454;-96
2021/06/11 05:29:53;;;;;;;15.00;13.57;;;14.50;99.90;;;;;;4880193;29;20497;-96
2021/06/11 05:32:19;;;;;;;15.30;13.80;;;14.50;99.90;;;;;;4891540;29;20265;-96
2021/06/11 05:34:44;;;;;;;17.90;14.27;;;14.60;99.90;;;;;;4892735;29;20205;-96
2021/06/11 05:37:10;;;;;;;21.43;13.97;;;14.60;99.90;;;;;;4893503;29;20229;-96
2021/06/11 05:39:36;;;;;;;16.03;13.67;;;14.60;99.90;;;;;;4891475;29;20194;-96
2021/06/11 05:42:01;;;;;;;14.10;12.80;;;14.60;99.90;;;;;;4888297;29;20225;-96
2021/06/11 05:44:32;;;;;;;15.00;13.60;;;14.50;99.90;;;;;;4895324;29;20195;-96
2021/06/11 05:46:58;;;;;;;13.37;12.10;;;14.60;99.90;;;;;;4880912;29;20254;-96
2021/06/11 05:49:24;;;;;;;15.77;14.27;;;14.70;99.90;;;;;;4889219;29;20537;-96
2021/06/11 05:51:49;;;;;;;15.40;13.80;;;14.80;99.90;;;;;;4885978;29;20481;-96
2021/06/11 05:54:15;;;;;;;15.43;13.30;;;15.00;99.90;;;;;;4890080;29;20288;-96
2021/06/11 05:56:46;;;;;;;14.97;13.50;;;15.10;99.90;;;;;;4895595;29;20201;-96
2021/06/11 05:59:13;;;;;;;13.40;12.20;;;15.20;99.90;;;;;;4883248;29;20217;-96
2021/06/11 06:01:46;;;;;;;14.17;12.90;;;15.20;99.90;;;;;;4877428;29;20442;-96
2021/06/11 06:04:12;;;;;;;14.00;12.70;;;15.30;99.90;;;;;;4880286;29;21016;-96
2021/06/11 06:06:37;;;;;;;13.90;12.60;;;15.40;99.90;;;;;;4880625;29;20529;-96
2021/06/11 06:09:03;;;;;;;13.27;12.10;;;15.60;99.90;;;;;;4888597;29;20196;-96
2021/06/11 06:11:29;;;;;;;13.90;12.60;;;15.60;99.90;;;;;;4884898;29;20189;-96
2021/06/11 06:13:55;;;;;;;14.10;12.80;;;15.70;99.90;;;;;;4885044;29;20434;-96
2021/06/11 06:16:20;;;;;;;15.13;13.77;;;15.70;99.90;;;;;;4885141;29;20221;-96
2021/06/11 06:18:46;;;;;;;14.67;13.27;;;15.80;99.90;;;;;;4880668;29;20209;-96
2021/06/11 06:21:12;;;;;;;14.53;13.17;;;15.90;99.90;;;;;;4882537;29;20697;-96
2021/06/11 06:23:38;;;;;;;12.87;11.73;;;16.00;99.90;;;;;;4887030;29;20209;-96
2021/06/11 06:26:04;;;;;;;13.20;12.00;;;16.10;99.90;;;;;;4874881;29;20242;-96
2021/06/11 06:28:30;;;;;;;12.93;11.73;;;16.10;99.90;;;;;;4882489;29;20189;-96
2021/06/11 06:30:56;;;;;;;12.30;11.30;;;16.20;99.90;;;;;;4891462;29;20205;-96
2021/06/11 06:33:21;;;;;;;12.10;11.03;;;16.30;99.90;;;;;;4894200;29;20482;-96
2021/06/11 06:35:47;;;;;;;13.53;11.97;;;16.60;99.90;;;;;;4890768;29;20204;-96
2021/06/11 06:38:14;;;;;;;13.53;12.23;;;16.70;99.90;;;;;;4876772;29;20237;-96
2021/06/11 06:40:40;;;;;;;12.30;11.20;;;16.70;99.90;;;;;;4873398;29;20245;-96
2021/06/11 06:43:06;;;;;;;12.00;10.80;;;16.80;99.90;;;;;;4869371;29;20477;-96
2021/06/11 06:45:34;;;;;;;12.00;11.00;;;16.90;99.90;;;;;;4869193;29;20450;-96
2021/06/11 06:48:01;;;;;;;11.90;10.90;;;17.10;99.90;;;;;;4879728;29;20201;-96
2021/06/11 06:50:27;;;;;;;11.60;10.60;;;17.20;99.90;;;;;;4877559;29;20471;-96
2021/06/11 06:52:55;;;;;;;11.70;10.63;;;17.30;99.90;;;;;;4871677;29;20466;-96
2021/06/11 06:55:21;;;;;;;11.70;10.73;;;17.60;99.90;;;;;;4876750;29;20206;-96
2021/06/11 06:57:47;;;;;;;11.13;10.13;;;17.80;99.90;;;;;;4869821;29;20499;-96
2021/06/11 07:00:16;;;;;;;10.77;9.77;;;17.90;99.90;;;;;;4870155;29;20522;-96
2021/06/11 07:02:41;;;;;;;12.47;11.37;;;17.80;99.90;;;;;;4868133;29;20206;-96
2021/06/11 07:05:08;;;;;;;12.87;11.70;;;17.60;99.90;;;;;;4866591;29;20530;-96
2021/06/11 07:07:34;;;;;;;12.10;11.10;;;17.70;99.90;;;;;;4884970;29;20206;-96
2021/06/11 07:10:03;;;;;;;12.70;11.50;;;17.90;99.90;;;;;;4880933;29;20465;-96
2021/06/11 07:12:29;;;;;;;12.77;11.57;;;18.00;99.90;;;;;;4884606;29;20467;-96
2021/06/11 07:14:55;;;;;;;12.57;11.43;;;18.00;99.90;;;;;;4869183;29;20457;-96
2021/06/11 07:17:20;;;;;;;12.47;11.47;;;18.20;99.90;;;;;;4873805;29;20232;-96
2021/06/11 07:19:46;;;;;;;12.63;11.53;;;18.30;99.90;;;;;;4874272;29;20225;-96
2021/06/11 07:22:22;;;;;;;13.07;11.97;;;18.30;99.90;;;;;;4871386;29;20219;-96
2021/06/11 07:24:48;;;;;;;13.10;11.80;;;18.40;99.90;;;;;;4865956;29;20201;-96
2021/06/11 07:27:15;;;;;;;13.57;12.37;;;18.60;99.90;;;;;;4880676;29;20476;-96
2021/06/11 07:29:43;;;;;;;12.00;11.00;;;18.80;99.90;;;;;;4876815;29;20672;-96
2021/06/11 07:32:13;;;;;;;12.60;11.50;;;19.00;99.90;;;;;;4881801;29;20465;-96
2021/06/11 07:34:39;;;;;;;13.60;12.30;;;19.10;99.90;;;;;;4882833;29;20477;-96
2021/06/11 07:37:06;;;;;;;12.47;11.47;;;19.10;99.90;;;;;;4899078;29;20514;-96
2021/06/11 07:39:32;;;;;;;12.80;11.70;;;19.10;99.90;;;;;;4888849;29;20197;-96
2021/06/11 07:41:58;;;;;;;13.00;11.90;;;19.30;99.90;;;;;;4891885;29;20868;-96
2021/06/11 07:44:24;;;;;;;14.80;12.40;;;19.40;99.90;;;;;;4873775;29;20506;-96
2021/06/11 07:46:50;;;;;;;13.30;12.20;;;19.50;99.90;;;;;;4866768;29;20217;-96
2021/06/11 07:49:16;;;;;;;14.10;12.83;;;19.60;99.90;;;;;;4872380;29;20480;-96
2021/06/11 07:51:42;;;;;;;17.17;12.33;;;19.70;99.90;;;;;;4873068;29;20503;-96
2021/06/11 07:54:08;;;;;;;13.43;12.33;;;20.00;99.90;;;;;;4873780;29;20235;-96
2021/06/11 07:56:36;;;;;;;12.70;11.67;;;20.20;99.90;;;;;;4870162;29;20840;-96
2021/06/11 07:59:03;;;;;;;13.73;12.53;;;20.50;99.90;;;;;;4870202;29;20194;-95
2021/06/11 08:01:33;;;;;;;13.20;12.10;;;20.60;99.90;;;;;;4866396;29;20449;-96
2021/06/11 08:04:00;;;;;;;11.83;10.93;;;20.60;99.90;;;;;;4863617;29;20863;-96
2021/06/11 08:06:27;;;;;;;12.27;11.20;;;20.80;99.90;;;;;;4868507;29;20450;-96
2021/06/11 08:08:54;;;;;;;14.50;13.30;;;20.80;99.90;;;;;;4862628;29;20470;-96
2021/06/11 08:11:21;;;;;;;12.43;11.43;;;20.40;99.90;;;;;;4866527;29;20459;-96
2021/06/11 08:13:46;;;;;;;13.70;12.60;;;20.30;99.90;;;;;;4853320;29;20462;-96
2021/06/11 08:16:13;;;;;;;13.00;11.90;;;20.70;99.90;;;;;;4865319;29;20553;-96
2021/06/11 08:18:39;;;;;;;12.03;11.13;;;21.00;99.90;;;;;;4867646;29;20226;-95
2021/06/11 08:21:05;;;;;;;12.83;11.73;;;21.30;99.90;;;;;;4849018;29;20549;-96
2021/06/11 08:23:31;;;;;;;13.93;12.57;;;21.50;99.90;;;;;;4869026;29;20489;-96
2021/06/11 08:25:57;;;;;;;12.90;11.90;;;21.50;99.90;;;;;;4856063;29;20459;-96
2021/06/11 08:28:23;;;;;;;13.50;12.40;;;21.60;99.90;;;;;;4867011;29;20457;-96
2021/06/11 08:30:52;;;;;;;12.33;11.20;;;21.50;99.90;;;;;;4867915;29;20250;-96
2021/06/11 08:33:21;;;;;;;12.73;11.63;;;21.50;99.90;;;;;;4874278;29;20280;-96
2021/06/11 08:35:47;;;;;;;13.00;12.00;;;21.80;99.90;;;;;;4873432;29;20454;-96
2021/06/11 08:38:14;;;;;;;11.43;10.33;;;21.80;99.90;;;;;;4863198;29;20553;-96
2021/06/11 08:40:40;;;;;;;12.13;11.23;;;21.80;99.90;;;;;;4863109;29;20973;-95
2021/06/11 08:43:07;;;;;;;11.30;10.40;;;22.10;99.90;;;;;;4866675;29;20679;-96
2021/06/11 08:45:34;;;;;;;11.60;10.80;;;22.30;99.90;;;;;;4864485;29;20481;-96
2021/06/11 08:48:02;;;;;;;11.73;10.67;;;22.50;99.90;;;;;;4869868;29;20442;-95
2021/06/11 08:50:32;;;;;;;12.63;10.83;;;22.70;99.90;;;;;;4857547;29;20943;-96
2021/06/11 08:52:59;;;;;;;11.60;10.80;;;22.80;99.90;;;;;;4864077;29;20485;-96
2021/06/11 08:55:26;;;;;;;11.93;11.03;;;22.80;99.90;;;;;;4864678;29;20445;-95
2021/06/11 08:57:52;;;;;;;13.80;12.60;;;22.90;99.90;;;;;;4866332;29;20487;-95
2021/06/11 09:00:19;;;;;;;12.70;11.70;;;23.00;99.90;;;;;;4867356;29;20804;-96
2021/06/11 09:03:25;;;;;;;12.70;11.60;;;23.10;99.90;;;;;;4878430;29;20457;-93
2021/06/11 09:06:06;;;;;;;12.80;11.70;;;23.30;99.90;;;;;;4865487;29;20521;-95
2021/06/11 09:08:32;;;;;;;13.03;11.93;;;22.70;99.90;;;;;;4884986;29;20533;-95
2021/06/11 09:11:20;;;;;;;12.70;11.70;;;22.80;99.90;;;;;;4875075;29;20528;-96
2021/06/11 09:13:50;;;;;;;11.60;10.70;;;22.90;99.90;;;;;;4872582;29;20805;-96
2021/06/11 09:16:19;;;;;;;11.97;10.90;;;22.90;99.90;;;;;;4870319;29;20459;-96
2021/06/11 09:19:04;;;;;;;11.87;11.07;;;23.00;99.90;;;;;;4869070;29;20470;-96
2021/06/11 09:21:34;;;;;;;12.90;11.80;;;23.30;99.90;;;;;;4866135;29;21031;-96
2021/06/11 09:26:40;;;;;;;13.60;12.40;;;23.80;99.90;;;;;;4864598;29;20465;-95
2021/06/11 09:29:20;;;;;;;12.80;11.90;;;24.00;99.90;;;;;;4868891;29;20825;-96
2021/06/11 09:31:45;;;;;;;13.97;12.67;;;24.20;99.90;;;;;;4864543;29;20182;-96
2021/06/11 09:34:25;;;;;;;12.33;11.43;;;24.30;99.90;;;;;;4867974;29;20733;-95
2021/06/11 09:37:02;;;;;;;12.13;11.17;;;24.20;99.90;;;;;;4865871;29;20293;-95
2021/06/11 09:39:53;;;;;;;12.53;11.43;;;24.00;99.90;;;;;;4868821;29;20482;-95
2021/06/11 09:42:28;;;;;;;12.40;11.27;;;24.30;99.90;;;;;;4869904;29;20475;-95
2021/06/11 09:45:15;;;;;;;13.80;12.70;;;24.60;99.90;;;;;;4880347;29;20546;-95
2021/06/11 09:47:46;;;;;;;12.50;11.60;;;24.60;99.90;;;;;;4864808;29;20483;-96
2021/06/11 09:50:27;;;;;;;13.13;12.07;;;24.70;99.90;;;;;;4866843;29;20485;-96
2021/06/11 09:53:14;;;;;;;13.70;12.70;;;25.00;99.90;;;;;;4868348;29;20474;-96
2021/06/11 09:55:49;;;;;;;14.63;13.40;;;24.90;99.90;;;;;;4866866;29;20462;-96
2021/06/11 09:58:23;;;;;;;12.77;11.67;;;24.60;99.90;;;;;;4867174;29;20480;-96
2021/06/11 10:00:59;;;;;;;14.60;13.33;;;24.90;99.90;;;;;;4862850;29;21041;-96
2021/06/11 10:03:37;;;;;;;12.07;11.17;;;25.20;99.90;;;;;;4869664;29;20440;-96
2021/06/11 10:06:12;;;;;;;12.30;11.43;;;25.60;99.70;;;;;;4867106;29;20461;-96
2021/06/11 10:08:39;;;;;;;13.10;12.20;;;25.80;98.40;;;;;;4867798;29;20445;-96
2021/06/11 10:11:10;;;;;;;11.40;10.67;;;26.00;99.90;;;;;;4868473;29;20446;-96
2021/06/11 10:13:37;;;;;;;12.20;11.30;;;25.40;99.50;;;;;;4865930;29;20670;-96
2021/06/11 10:16:11;;;;;;;12.20;11.07;;;24.90;98.10;;;;;;4856965;29;20821;-94
2021/06/11 10:18:52;;;;;;;12.70;11.80;;;24.40;99.90;;;;;;4844737;29;20565;-95
2021/06/11 10:21:18;;;;;;;12.40;11.20;;;23.90;99.90;;;;;;4862042;29;20454;-95
2021/06/11 10:23:44;;;;;;;12.67;11.67;;;23.60;99.90;;;;;;4860587;29;20205;-95
2021/06/11 10:26:11;;;;;;;12.03;11.13;;;23.40;99.90;;;;;;4860683;29;20451;-94
2021/06/11 10:28:41;;;;;;;10.93;10.03;;;23.20;99.90;;;;;;4861944;29;20194;-93
2021/06/11 10:31:25;;;;;;;11.10;10.40;;;23.50;99.90;;;;;;4865509;29;20764;-94
2021/06/11 10:33:53;;;;;;;10.10;9.20;;;24.20;99.90;;;;;;4861008;29;20454;-94
2021/06/11 10:36:29;;;;;;;9.80;9.13;;;25.00;98.90;;;;;;4862834;29;20489;-95
2021/06/11 10:38:55;;;;;;;10.23;9.40;;;25.60;97.20;;;;;;4860454;29;21068;-95
2021/06/11 10:41:22;;;;;;;10.70;9.90;;;26.00;92.90;;;;;;4864036;29;20541;-94
2021/06/11 10:43:49;;;;;;;10.50;9.77;;;25.80;93.10;;;;;;4867266;29;20473;-94
2021/06/11 10:46:21;;;;;;;9.70;9.10;;;25.60;94.70;;;;;;4864300;29;20455;-94
2021/06/11 10:48:55;;;;;;;9.03;8.40;;;25.60;93.60;;;;;;4865070;29;20553;-95
2021/06/11 10:51:39;;;;;;;8.40;7.90;;;26.10;92.40;;;;;;4860207;29;20448;-92
2021/06/11 10:54:20;;;;;;;9.03;8.33;;;26.60;91.10;;;;;;4860345;29;21014;-92
2021/06/11 10:56:58;;;;;;;11.50;10.70;;;27.00;92.00;;;;;;4859923;29;20473;-95
2021/06/11 10:59:54;;;;;;;10.10;9.40;;;26.60;91.20;;;;;;4881980;29;20844;-95
2021/06/11 11:02:19;;;;;;;10.17;9.47;;;26.30;92.30;;;;;;4852376;29;20858;-96
2021/06/11 11:04:48;;;;;;;10.53;9.63;;;26.50;93.90;;;;;;4858848;29;20455;-95
2021/06/11 11:07:23;;;;;;;10.13;9.33;;;26.90;94.80;;;;;;4858828;29;20233;-95
2021/06/11 11:09:57;;;;;;;9.90;9.17;;;27.00;93.40;;;;;;4854782;29;20454;-96
2021/06/11 11:12:32;;;;;;;11.43;10.63;;;26.90;90.10;;;;;;4856842;29;20902;-95
2021/06/11 11:14:59;;;;;;;11.13;10.43;;;27.10;88.80;;;;;;4857192;29;20479;-96
2021/06/11 11:17:26;;;;;;;11.30;10.50;;;26.30;89.40;;;;;;4855156;29;21002;-94
2021/06/11 11:19:59;;;;;;;10.80;10.00;;;25.40;92.00;;;;;;4854530;29;20745;-94
2021/06/11 11:22:29;;;;;;;10.80;10.10;;;25.40;91.90;;;;;;4857374;29;20934;-96
2021/06/11 11:24:56;;;;;;;10.20;9.50;;;25.80;88.90;;;;;;4857779;29;22003;-96
2021/06/11 11:27:23;;;;;;;10.10;9.40;;;26.30;87.50;;;;;;4857997;29;20471;-95
2021/06/11 11:29:52;;;;;;;10.23;9.33;;;26.50;87.50;;;;;;4859596;29;20448;-96
2021/06/11 11:32:18;;;;;;;10.77;10.07;;;26.70;86.70;;;;;;4859374;29;20457;-96
2021/06/11 11:34:44;;;;;;;9.70;9.00;;;26.60;86.00;;;;;;4861902;29;20445;-94
2021/06/11 11:37:12;;;;;;;13.70;9.40;;;26.60;88.70;;;;;;4853703;29;20233;-96
2021/06/11 11:39:39;;;;;;;9.73;9.13;;;27.00;87.50;;;;;;4856479;29;20458;-96
2021/06/11 11:42:05;;;;;;;8.67;8.13;;;27.50;91.60;;;;;;4858486;29;20498;-96
2021/06/11 11:44:33;;;;;;;8.37;7.70;;;27.80;86.40;;;;;;4867099;29;20533;-94
2021/06/11 11:46:59;;;;;;;7.77;7.27;;;27.60;86.30;;;;;;4859743;29;20558;-95
2021/06/11 11:49:25;;;;;;;8.33;7.73;;;27.80;82.50;;;;;;4868957;29;20508;-95
2021/06/11 11:51:51;;;;;;;8.10;7.50;;;27.40;81.50;;;;;;4860300;29;20466;-96
2021/06/11 11:54:18;;;;;;;8.30;7.73;;;26.80;79.00;;;;;;4861993;29;20508;-96
2021/06/11 11:56:44;;;;;;;8.30;7.70;;;26.30;84.40;;;;;;4857264;29;20193;-95
2021/06/11 11:59:10;;;;;;;9.57;8.60;;;26.20;88.40;;;;;;4852260;29;20494;-96
2021/06/11 12:01:42;;;;;;;8.27;7.67;;;26.70;87.60;;;;;;4859086;29;20698;-96
2021/06/11 12:04:09;;;;;;;14.27;13.00;;;27.20;85.30;;;;;;4864479;29;20225;-96
2021/06/11 12:06:34;;;;;;;8.80;8.20;;;27.90;85.90;;;;;;4864993;29;20478;-95
2021/06/11 12:09:00;;;;;;;9.87;9.17;;;27.80;81.30;;;;;;4861480;29;20454;-96
2021/06/11 12:11:26;;;;;;;9.47;8.67;;;27.90;80.50;;;;;;4865476;29;20268;-96
2021/06/11 12:13:52;;;;;;;9.03;8.43;;;27.00;85.40;;;;;;4867455;29;20466;-96
2021/06/11 12:16:20;;;;;;;10.13;9.37;;;26.90;80.70;;;;;;4857971;29;20186;-96
2021/06/11 12:18:46;;;;;;;9.47;8.67;;;26.60;82.00;;;;;;4863137;29;20243;-95
2021/06/11 12:21:14;;;;;;;8.53;7.90;;;27.10;87.20;;;;;;4861110;29;20470;-95
2021/06/11 12:23:39;;;;;;;9.37;8.77;;;27.40;79.50;;;;;;4858670;29;20309;-94
2021/06/11 12:26:05;;;;;;;9.10;8.60;;;27.60;80.40;;;;;;4863719;29;20541;-95
2021/06/11 12:28:31;;;;;;;7.77;7.27;;;27.80;82.30;;;;;;4858311;29;20776;-95
2021/06/11 12:30:57;;;;;;;8.17;7.67;;;27.80;77.30;;;;;;4866069;29;20198;-96
2021/06/11 12:33:22;;;;;;;7.83;7.30;;;27.70;72.20;;;;;;4858048;29;20190;-95
2021/06/11 12:35:48;;;;;;;8.80;8.10;;;27.50;75.10;;;;;;4862823;29;20452;-96
2021/06/11 12:38:15;;;;;;;7.83;7.33;;;27.70;75.90;;;;;;4869230;29;20261;-96
2021/06/11 12:40:44;;;;;;;7.80;7.40;;;28.30;75.90;;;;;;4863675;29;20289;-96